createdAt,value
2019-02-07T00:00:22.484Z,57.22
2019-02-07T00:00:56.590Z,58.20
2019-02-07T00:01:27.896Z,57.83
2019-02-07T00:01:59.117Z,56.95
2019-02-07T00:02:30.331Z,56.21
2019-02-07T00:03:01.627Z,55.85
2019-02-07T00:03:32.841Z,55.74
2019-02-07T00:04:04.777Z,55.89
2019-02-07T00:04:35.991Z,56.06
2019-02-07T00:05:07.499Z,56.76
2019-02-07T00:05:38.721Z,57.66
2019-02-07T00:06:10.043Z,57.98
2019-02-07T00:06:41.253Z,57.64
2019-02-07T00:07:12.499Z,56.81
2019-02-07T00:07:43.687Z,56.24
2019-02-07T00:08:14.899Z,56.07
2019-02-07T00:08:46.123Z,56.00
2019-02-07T00:09:17.332Z,56.11
2019-02-07T00:09:48.966Z,56.24
2019-02-07T00:10:20.246Z,57.11
2019-02-07T00:10:51.492Z,57.96
2019-02-07T00:11:22.705Z,58.31
2019-02-07T00:11:53.943Z,57.75
2019-02-07T00:12:25.261Z,56.83
2019-02-07T00:12:56.514Z,56.29
2019-02-07T00:13:27.739Z,56.07
2019-02-07T00:13:58.904Z,56.11
2019-02-07T00:14:39.462Z,56.23
2019-02-07T00:15:07.630Z,56.63
2019-02-07T00:15:38.980Z,57.70
2019-02-07T00:16:10.187Z,58.25
2019-02-07T00:16:41.728Z,58.12
2019-02-07T00:17:12.979Z,57.22
2019-02-07T00:17:44.294Z,56.59
2019-02-07T00:18:15.471Z,56.16
2019-02-07T00:18:46.717Z,56.01
2019-02-07T00:19:17.968Z,56.11
2019-02-07T00:19:49.220Z,56.40
2019-02-07T00:20:20.426Z,56.99
2019-02-07T00:20:52.774Z,57.70
2019-02-07T00:21:24.062Z,57.93
2019-02-07T00:21:55.320Z,57.50
2019-02-07T00:22:26.956Z,56.73
2019-02-07T00:22:59.397Z,56.17
2019-02-07T00:23:30.688Z,55.96
2019-02-07T00:24:02.051Z,56.01
2019-02-07T00:24:42.486Z,56.17
2019-02-07T00:25:08.284Z,56.58
2019-02-07T00:25:39.493Z,57.53
2019-02-07T00:26:10.746Z,58.14
2019-02-07T00:26:41.926Z,58.06
2019-02-07T00:27:13.174Z,57.03
2019-02-07T00:27:44.458Z,56.32
2019-02-07T00:28:15.920Z,56.03
2019-02-07T00:28:47.094Z,56.04
2019-02-07T00:29:18.780Z,56.18
2019-02-07T00:29:49.956Z,56.40
2019-02-07T00:30:21.681Z,57.12
2019-02-07T00:30:53.839Z,57.82
2019-02-07T00:31:25.099Z,58.18
2019-02-07T00:31:56.292Z,57.66
2019-02-07T00:32:27.527Z,56.84
2019-02-07T00:32:58.727Z,56.29
2019-02-07T00:33:29.995Z,56.01
2019-02-07T00:34:01.284Z,56.01
2019-02-07T00:34:32.561Z,56.11
2019-02-07T00:35:07.667Z,56.34
2019-02-07T00:35:38.969Z,57.02
2019-02-07T00:36:10.573Z,57.90
2019-02-07T00:36:41.857Z,58.28
2019-02-07T00:37:13.141Z,57.82
2019-02-07T00:37:44.409Z,57.02
2019-02-07T00:38:15.661Z,56.35
2019-02-07T00:38:46.852Z,56.06
2019-02-07T00:39:18.156Z,56.04
2019-02-07T00:39:49.361Z,56.22
2019-02-07T00:40:21.489Z,56.35
2019-02-07T00:40:52.688Z,57.00
2019-02-07T00:41:24.006Z,57.87
2019-02-07T00:41:55.612Z,58.39
2019-02-07T00:42:26.877Z,58.03
2019-02-07T00:42:58.138Z,57.11
2019-02-07T00:43:29.388Z,56.58
2019-02-07T00:44:00.570Z,56.34
2019-02-07T00:44:31.805Z,56.15
2019-02-07T00:45:07.001Z,56.22
2019-02-07T00:45:38.244Z,56.34
2019-02-07T00:46:09.461Z,57.10
2019-02-07T00:46:40.803Z,57.94
2019-02-07T00:47:12.169Z,58.40
2019-02-07T00:47:43.645Z,58.07
2019-02-07T00:48:14.857Z,57.28
2019-02-07T00:48:46.135Z,56.70
2019-02-07T00:49:17.410Z,56.31
2019-02-07T00:49:48.726Z,56.25
2019-02-07T00:50:20.076Z,56.29
2019-02-07T00:50:51.390Z,56.60
2019-02-07T00:51:22.665Z,57.17
2019-02-07T00:51:53.957Z,58.03
2019-02-07T00:52:26.229Z,58.47
2019-02-07T00:52:57.499Z,57.99
2019-02-07T00:53:29.101Z,57.17
2019-02-07T00:54:00.283Z,56.55
2019-02-07T00:54:31.526Z,56.31
2019-02-07T00:55:06.333Z,56.21
2019-02-07T00:55:37.960Z,56.19
2019-02-07T00:56:09.136Z,56.50
2019-02-07T00:56:40.378Z,57.04
2019-02-07T00:57:11.562Z,57.90
2019-02-07T00:57:43.806Z,58.36
2019-02-07T00:58:15.025Z,58.02
2019-02-07T00:58:46.298Z,57.22
2019-02-07T00:59:17.625Z,56.67
2019-02-07T00:59:48.906Z,56.40
2019-02-07T01:00:24.629Z,56.28
2019-02-07T01:00:55.896Z,56.29
2019-02-07T01:01:27.493Z,56.52
2019-02-07T01:01:58.728Z,57.23
2019-02-07T01:02:29.986Z,57.97
2019-02-07T01:03:01.250Z,58.38
2019-02-07T01:03:32.463Z,57.93
2019-02-07T01:04:03.663Z,57.21
2019-02-07T01:04:34.883Z,56.62
2019-02-07T01:05:08.925Z,56.41
2019-02-07T01:05:40.178Z,56.31
2019-02-07T01:06:11.397Z,56.53
2019-02-07T01:06:42.599Z,56.92
2019-02-07T01:07:14.119Z,57.54
2019-02-07T01:07:45.385Z,58.22
2019-02-07T01:08:16.651Z,58.50
2019-02-07T01:08:47.893Z,57.94
2019-02-07T01:09:19.155Z,57.06
2019-02-07T01:09:50.385Z,56.52
2019-02-07T01:10:27.902Z,56.30
2019-02-07T01:10:59.090Z,56.07
2019-02-07T01:11:30.299Z,56.36
2019-02-07T01:12:02.622Z,56.78
2019-02-07T01:12:33.905Z,57.80
2019-02-07T01:13:05.220Z,58.41
2019-02-07T01:13:36.488Z,58.39
2019-02-07T01:14:07.884Z,57.65
2019-02-07T01:14:39.189Z,56.76
2019-02-07T01:15:11.729Z,56.34
2019-02-07T01:15:43.976Z,56.13
2019-02-07T01:16:15.174Z,56.18
2019-02-07T01:16:46.438Z,56.40
2019-02-07T01:17:17.625Z,56.74
2019-02-07T01:17:48.890Z,57.59
2019-02-07T01:18:20.062Z,58.16
2019-02-07T01:18:51.304Z,58.24
2019-02-07T01:19:22.588Z,57.52
2019-02-07T01:19:54.922Z,56.68
2019-02-07T01:20:26.107Z,56.22
2019-02-07T01:20:57.737Z,56.08
2019-02-07T01:21:28.897Z,56.12
2019-02-07T01:22:00.155Z,56.27
2019-02-07T01:22:31.336Z,56.54
2019-02-07T01:23:02.564Z,57.36
2019-02-07T01:23:33.788Z,57.94
2019-02-07T01:24:05.095Z,58.25
2019-02-07T01:24:36.299Z,57.50
2019-02-07T01:25:14.234Z,56.66
2019-02-07T01:25:45.440Z,56.07
2019-02-07T01:26:16.653Z,55.88
2019-02-07T01:26:47.843Z,55.92
2019-02-07T01:27:19.059Z,56.02
2019-02-07T01:27:50.663Z,56.44
2019-02-07T01:28:21.916Z,57.20
2019-02-07T01:28:53.248Z,57.87
2019-02-07T01:29:24.504Z,58.13
2019-02-07T01:29:55.678Z,57.69
2019-02-07T01:30:28.341Z,56.71
2019-02-07T01:30:59.636Z,56.13
2019-02-07T01:31:30.829Z,55.80
2019-02-07T01:32:02.038Z,55.83
2019-02-07T01:32:33.219Z,56.02
2019-02-07T01:33:04.400Z,56.41
2019-02-07T01:33:36.011Z,57.34
2019-02-07T01:34:07.229Z,58.02
2019-02-07T01:34:38.704Z,58.04
2019-02-07T01:35:09.967Z,57.32
2019-02-07T01:35:41.259Z,56.53
2019-02-07T01:36:12.489Z,56.09
2019-02-07T01:36:43.677Z,55.80
2019-02-07T01:37:14.917Z,55.83
2019-02-07T01:37:46.128Z,55.95
2019-02-07T01:38:18.339Z,56.29
2019-02-07T01:38:49.553Z,57.13
2019-02-07T01:39:21.066Z,57.82
2019-02-07T01:39:52.274Z,57.85
2019-02-07T01:40:24.438Z,57.04
2019-02-07T01:40:55.693Z,56.28
2019-02-07T01:41:26.964Z,55.92
2019-02-07T01:41:58.329Z,55.84
2019-02-07T01:42:29.699Z,55.81
2019-02-07T01:43:00.984Z,55.93
2019-02-07T01:43:32.272Z,55.98
2019-02-07T01:44:03.532Z,56.82
2019-02-07T01:44:34.741Z,57.42
2019-02-07T01:45:13.108Z,57.69
2019-02-07T01:45:43.516Z,57.20
2019-02-07T01:46:14.952Z,56.27
2019-02-07T01:46:46.164Z,55.70
2019-02-07T01:47:17.412Z,55.50
2019-02-07T01:47:49.338Z,55.51
2019-02-07T01:48:20.595Z,55.69
2019-02-07T01:48:52.133Z,56.16
2019-02-07T01:49:23.495Z,57.14
2019-02-07T01:49:54.769Z,57.82
2019-02-07T01:50:26.041Z,57.90
2019-02-07T01:50:57.313Z,57.02
2019-02-07T01:51:28.629Z,56.24
2019-02-07T01:52:00.195Z,55.76
2019-02-07T01:52:31.475Z,55.69
2019-02-07T01:53:02.795Z,55.85
2019-02-07T01:53:34.073Z,56.05
2019-02-07T01:54:05.654Z,56.64
2019-02-07T01:54:36.929Z,57.47
2019-02-07T01:55:08.195Z,58.00
2019-02-07T01:55:39.467Z,57.81
2019-02-07T01:56:11.805Z,56.99
2019-02-07T01:56:42.973Z,56.32
2019-02-07T01:57:14.221Z,55.99
2019-02-07T01:57:45.819Z,55.95
2019-02-07T01:58:17.082Z,56.06
2019-02-07T01:58:48.270Z,56.30
2019-02-07T01:59:19.532Z,56.95
2019-02-07T01:59:50.710Z,57.73
2019-02-07T02:00:21.945Z,58.19
2019-02-07T02:00:53.201Z,58.21
2019-02-07T02:01:24.373Z,57.42
2019-02-07T02:01:55.580Z,56.69
2019-02-07T02:02:26.780Z,56.28
2019-02-07T02:02:57.954Z,56.16
2019-02-07T02:03:29.552Z,56.29
2019-02-07T02:04:00.795Z,56.57
2019-02-07T02:04:31.999Z,57.20
2019-02-07T02:05:04.951Z,57.92
2019-02-07T02:05:36.169Z,58.48
2019-02-07T02:06:07.403Z,58.03
2019-02-07T02:06:38.659Z,57.21
2019-02-07T02:07:09.998Z,56.49
2019-02-07T02:07:41.165Z,56.17
2019-02-07T02:08:12.341Z,56.08
2019-02-07T02:08:43.555Z,56.18
2019-02-07T02:09:15.069Z,56.40
2019-02-07T02:09:46.278Z,57.25
2019-02-07T02:10:27.591Z,58.10
2019-02-07T02:10:58.771Z,58.79
2019-02-07T02:11:30.053Z,58.33
2019-02-07T02:12:01.319Z,57.87
2019-02-07T02:12:32.556Z,57.12
2019-02-07T02:13:03.715Z,56.46
2019-02-07T02:13:35.224Z,55.78
2019-02-07T02:14:06.442Z,54.96
2019-02-07T02:14:38.684Z,53.99
2019-02-07T02:15:10.880Z,52.77
2019-02-07T02:15:42.100Z,51.94
2019-02-07T02:16:13.284Z,51.59
2019-02-07T02:16:44.536Z,51.56
2019-02-07T02:17:16.132Z,51.72
2019-02-07T02:17:47.503Z,51.97
2019-02-07T02:18:19.051Z,52.34
2019-02-07T02:18:50.313Z,52.80
2019-02-07T02:19:21.530Z,53.26
2019-02-07T02:19:52.752Z,53.73
2019-02-07T02:20:24.270Z,54.22
2019-02-07T02:20:55.595Z,54.69
2019-02-07T02:21:26.781Z,55.27
2019-02-07T02:21:58.017Z,55.78
2019-02-07T02:22:29.215Z,56.37
2019-02-07T02:23:00.850Z,57.36
2019-02-07T02:23:32.149Z,58.01
2019-02-07T02:24:03.365Z,58.16
2019-02-07T02:24:34.585Z,57.60
2019-02-07T02:25:10.277Z,56.70
2019-02-07T02:25:41.568Z,55.97
2019-02-07T02:26:12.776Z,55.79
2019-02-07T02:26:44.006Z,55.85
2019-02-07T02:27:15.283Z,56.04
2019-02-07T02:27:46.496Z,56.37
2019-02-07T02:28:17.718Z,57.04
2019-02-07T02:28:49.232Z,57.93
2019-02-07T02:29:20.410Z,58.35
2019-02-07T02:29:51.635Z,58.11
2019-02-07T02:30:32.036Z,57.17
2019-02-07T02:31:03.738Z,56.27
2019-02-07T02:31:35.190Z,55.96
2019-02-07T02:32:06.442Z,55.97
2019-02-07T02:32:37.599Z,56.12
2019-02-07T02:33:08.894Z,56.38
2019-02-07T02:33:40.073Z,57.22
2019-02-07T02:34:11.336Z,58.04
2019-02-07T02:34:42.545Z,58.36
2019-02-07T02:35:13.822Z,57.72
2019-02-07T02:35:45.556Z,56.80
2019-02-07T02:36:16.925Z,56.14
2019-02-07T02:36:48.591Z,55.89
2019-02-07T02:37:19.864Z,55.95
2019-02-07T02:37:51.151Z,56.16
2019-02-07T02:38:22.409Z,56.38
2019-02-07T02:38:53.701Z,57.26
2019-02-07T02:39:24.987Z,57.97
2019-02-07T02:39:56.243Z,58.28
2019-02-07T02:40:28.400Z,57.75
2019-02-07T02:41:00.678Z,56.89
2019-02-07T02:41:31.948Z,56.16
2019-02-07T02:42:03.145Z,55.69
2019-02-07T02:42:34.766Z,55.66
2019-02-07T02:43:05.975Z,55.81
2019-02-07T02:43:37.186Z,56.09
2019-02-07T02:44:08.405Z,56.75
2019-02-07T02:44:39.643Z,57.58
2019-02-07T02:45:20.338Z,58.05
2019-02-07T02:45:51.617Z,58.08
2019-02-07T02:46:22.825Z,57.56
2019-02-07T02:46:54.092Z,57.38
2019-02-07T02:47:25.260Z,57.00
2019-02-07T02:47:56.521Z,56.43
2019-02-07T02:48:27.742Z,55.75
2019-02-07T02:48:58.992Z,55.01
2019-02-07T02:49:30.567Z,54.45
2019-02-07T02:50:04.220Z,53.47
2019-02-07T02:50:35.793Z,52.46
2019-02-07T02:51:07.087Z,51.94
2019-02-07T02:51:38.267Z,51.77
2019-02-07T02:52:09.568Z,51.80
2019-02-07T02:52:40.834Z,52.01
2019-02-07T02:53:12.087Z,52.43
2019-02-07T02:53:43.280Z,52.78
2019-02-07T02:54:31.093Z,53.32
2019-02-07T02:55:04.085Z,53.50
2019-02-07T02:55:37.127Z,54.43
2019-02-07T02:56:08.739Z,54.89
2019-02-07T02:56:40.147Z,55.54
2019-02-07T02:57:11.416Z,56.66
2019-02-07T02:57:42.711Z,57.54
2019-02-07T02:58:14.007Z,57.94
2019-02-07T02:58:45.261Z,57.71
2019-02-07T02:59:16.578Z,56.83
2019-02-07T02:59:48.302Z,56.09
2019-02-07T03:00:21.430Z,55.77
2019-02-07T03:00:52.664Z,55.58
2019-02-07T03:01:38.129Z,55.66
2019-02-07T03:02:29.545Z,55.56
2019-02-07T03:03:12.638Z,57.25
2019-02-07T03:03:45.743Z,58.32
2019-02-07T03:04:18.829Z,57.89
2019-02-07T03:04:54.472Z,56.89
2019-02-07T03:05:27.667Z,55.94
2019-02-07T03:06:01.803Z,55.56
2019-02-07T03:06:40.519Z,55.49
2019-02-07T03:07:20.510Z,55.56
2019-02-07T03:07:53.937Z,55.89
2019-02-07T03:08:27.127Z,57.19
2019-02-07T03:09:00.640Z,57.87
2019-02-07T03:09:36.659Z,58.08
2019-02-07T03:10:11.315Z,57.29
2019-02-07T03:10:50.041Z,56.44
2019-02-07T03:11:36.042Z,55.80
2019-02-07T03:12:19.331Z,55.46
2019-02-07T03:12:59.238Z,55.69
2019-02-07T03:13:35.267Z,57.07
2019-02-07T03:14:20.411Z,57.98
2019-02-07T03:14:53.488Z,58.55
2019-02-07T03:15:35.268Z,58.04
2019-02-07T03:16:11.081Z,57.88
2019-02-07T03:16:54.331Z,57.07
2019-02-07T03:17:30.435Z,56.66
2019-02-07T03:18:16.411Z,55.46
2019-02-07T03:19:06.031Z,55.16
2019-02-07T03:19:48.090Z,53.82
2019-02-07T03:20:23.913Z,52.25
2019-02-07T03:20:59.954Z,51.66
2019-02-07T03:21:33.133Z,51.59
2019-02-07T03:22:22.229Z,51.75
2019-02-07T03:23:07.255Z,51.85
2019-02-07T03:23:49.555Z,52.38
2019-02-07T03:24:29.510Z,53.00
2019-02-07T03:25:02.669Z,53.65
2019-02-07T03:25:44.725Z,54.29
2019-02-07T03:26:26.893Z,54.46
2019-02-07T03:26:59.969Z,54.99
2019-02-07T03:27:42.131Z,56.51
2019-02-07T03:28:24.183Z,57.52
2019-02-07T03:29:10.332Z,57.69
2019-02-07T03:30:00.529Z,56.44
2019-02-07T03:30:44.716Z,55.47
2019-02-07T03:31:24.856Z,55.47
2019-02-07T03:32:04.401Z,55.63
2019-02-07T03:32:43.100Z,56.85
2019-02-07T03:33:18.880Z,57.98
2019-02-07T03:34:03.693Z,58.01
2019-02-07T03:34:53.509Z,57.05
2019-02-07T03:35:24.994Z,55.70
2019-02-07T03:35:58.137Z,55.67
2019-02-07T03:36:47.716Z,55.60
2019-02-07T03:37:20.899Z,55.78
2019-02-07T03:37:56.841Z,57.21
2019-02-07T03:38:30.076Z,57.87
2019-02-07T03:39:14.899Z,57.65
2019-02-07T03:39:51.947Z,56.72
2019-02-07T03:40:31.833Z,55.91
2019-02-07T03:41:06.909Z,55.66
2019-02-07T03:41:56.712Z,55.76
2019-02-07T03:42:29.855Z,56.53
2019-02-07T03:43:08.459Z,57.65
2019-02-07T03:43:39.708Z,58.05
2019-02-07T03:44:24.540Z,56.92
2019-02-07T03:45:00.861Z,55.94
2019-02-07T03:45:34.037Z,55.52
2019-02-07T03:46:10.180Z,55.56
2019-02-07T03:46:49.094Z,55.65
2019-02-07T03:47:27.985Z,56.22
2019-02-07T03:48:16.410Z,57.56
2019-02-07T03:49:01.519Z,58.53
2019-02-07T03:49:50.981Z,58.39
2019-02-07T03:50:24.330Z,57.94
2019-02-07T03:50:57.422Z,56.59
2019-02-07T03:51:30.952Z,55.74
2019-02-07T03:52:04.033Z,54.99
2019-02-07T03:52:49.515Z,54.37
2019-02-07T03:53:22.681Z,53.30
2019-02-07T03:53:55.839Z,51.91
2019-02-07T03:54:28.899Z,51.48
2019-02-07T03:55:13.763Z,51.44
2019-02-07T03:55:55.445Z,51.38
2019-02-07T03:56:31.624Z,51.68
2019-02-07T03:57:04.714Z,52.19
2019-02-07T03:57:38.089Z,52.80
2019-02-07T03:58:11.222Z,53.28
2019-02-07T03:58:50.020Z,53.83
2019-02-07T03:59:38.157Z,54.13
2019-02-07T04:00:15.025Z,54.34
2019-02-07T04:00:53.876Z,55.95
2019-02-07T04:01:29.922Z,57.23
2019-02-07T04:02:18.008Z,57.82
2019-02-07T04:03:07.651Z,57.09
2019-02-07T04:03:40.757Z,55.33
2019-02-07T04:04:31.643Z,55.00
2019-02-07T04:05:06.945Z,54.70
2019-02-07T04:05:45.735Z,55.05
2019-02-07T04:06:18.847Z,56.09
2019-02-07T04:07:08.511Z,57.02
2019-02-07T04:07:41.617Z,57.70
2019-02-07T04:08:26.704Z,56.33
2019-02-07T04:08:59.791Z,55.33
2019-02-07T04:09:33.703Z,55.16
2019-02-07T04:10:10.625Z,55.31
2019-02-07T04:10:44.854Z,55.48
2019-02-07T04:11:23.786Z,56.56
2019-02-07T04:11:55.026Z,57.58
2019-02-07T04:12:37.909Z,57.61
2019-02-07T04:13:11.066Z,56.81
2019-02-07T04:13:44.338Z,55.84
2019-02-07T04:14:35.366Z,55.32
2019-02-07T04:15:08.610Z,54.83
2019-02-07T04:15:51.675Z,55.43
2019-02-07T04:16:24.756Z,56.64
2019-02-07T04:17:03.464Z,57.47
2019-02-07T04:17:52.919Z,57.49
2019-02-07T04:18:37.877Z,56.16
2019-02-07T04:19:28.771Z,55.26
2019-02-07T04:20:07.575Z,54.84
2019-02-07T04:20:40.691Z,56.10
2019-02-07T04:21:14.816Z,57.00
2019-02-07T04:21:50.652Z,57.36
2019-02-07T04:22:21.872Z,56.55
2019-02-07T04:22:54.973Z,55.57
2019-02-07T04:23:40.005Z,54.98
2019-02-07T04:24:13.317Z,54.60
2019-02-07T04:24:52.899Z,54.88
2019-02-07T04:25:25.972Z,55.43
2019-02-07T04:26:15.211Z,56.48
2019-02-07T04:26:50.911Z,57.45
2019-02-07T04:27:24.062Z,57.02
2019-02-07T04:28:01.008Z,55.94
2019-02-07T04:28:39.957Z,55.12
2019-02-07T04:29:21.854Z,54.67
2019-02-07T04:29:55.112Z,54.71
2019-02-07T04:30:44.977Z,55.07
2019-02-07T04:31:18.078Z,56.22
2019-02-07T04:31:57.117Z,57.02
2019-02-07T04:32:47.948Z,57.20
2019-02-07T04:33:19.158Z,55.94
2019-02-07T04:33:55.579Z,55.19
2019-02-07T04:34:37.753Z,54.70
2019-02-07T04:35:10.961Z,54.78
2019-02-07T04:36:00.473Z,55.18
2019-02-07T04:36:33.590Z,56.33
2019-02-07T04:37:09.679Z,57.07
2019-02-07T04:37:48.511Z,56.98
2019-02-07T04:38:21.629Z,55.86
2019-02-07T04:39:06.862Z,55.04
2019-02-07T04:39:38.488Z,54.65
2019-02-07T04:40:18.433Z,54.92
2019-02-07T04:40:54.366Z,55.10
2019-02-07T04:41:30.942Z,56.25
2019-02-07T04:42:06.870Z,57.10
2019-02-07T04:42:40.148Z,57.41
2019-02-07T04:43:13.229Z,56.42
2019-02-07T04:43:46.345Z,55.55
2019-02-07T04:44:31.247Z,54.92
2019-02-07T04:45:23.683Z,54.58
2019-02-07T04:46:02.591Z,54.67
2019-02-07T04:46:36.026Z,56.24
2019-02-07T04:47:25.404Z,57.04
2019-02-07T04:48:04.512Z,57.56
2019-02-07T04:48:38.285Z,56.21
2019-02-07T04:49:26.432Z,55.29
2019-02-07T04:50:02.922Z,54.67
2019-02-07T04:50:39.909Z,54.81
2019-02-07T04:51:18.929Z,55.32
2019-02-07T04:52:05.044Z,56.58
2019-02-07T04:52:44.079Z,57.59
2019-02-07T04:53:33.829Z,57.19
2019-02-07T04:54:07.107Z,55.73
2019-02-07T04:54:46.219Z,55.05
2019-02-07T04:55:19.392Z,54.86
2019-02-07T04:56:01.210Z,55.06
2019-02-07T04:56:36.992Z,55.88
2019-02-07T04:57:16.163Z,56.87
2019-02-07T04:57:54.958Z,57.35
2019-02-07T04:58:31.077Z,56.82
2019-02-07T04:59:16.129Z,55.57
2019-02-07T05:00:00.839Z,54.79
2019-02-07T05:00:34.005Z,54.68
2019-02-07T05:01:07.803Z,55.06
2019-02-07T05:01:39.135Z,55.95
2019-02-07T05:02:20.775Z,56.76
2019-02-07T05:02:52.027Z,57.50
2019-02-07T05:03:23.199Z,56.95
2019-02-07T05:04:00.155Z,55.93
2019-02-07T05:04:35.803Z,55.21
2019-02-07T05:05:18.443Z,54.81
2019-02-07T05:05:51.663Z,54.67
2019-02-07T05:06:41.331Z,55.53
2019-02-07T05:07:14.806Z,56.94
2019-02-07T05:07:47.982Z,57.18
2019-02-07T05:08:30.481Z,57.07
2019-02-07T05:09:03.701Z,55.98
2019-02-07T05:09:44.607Z,54.98
2019-02-07T05:10:20.394Z,54.72
2019-02-07T05:10:53.601Z,54.84
2019-02-07T05:11:30.521Z,55.41
2019-02-07T05:12:09.617Z,56.39
2019-02-07T05:12:58.964Z,57.21
2019-02-07T05:13:35.096Z,57.77
2019-02-07T05:14:17.329Z,56.35
2019-02-07T05:15:02.302Z,55.36
2019-02-07T05:15:35.576Z,54.86
2019-02-07T05:16:09.491Z,54.99
2019-02-07T05:16:59.159Z,55.76
2019-02-07T05:17:38.324Z,57.20
2019-02-07T05:18:15.193Z,57.36
2019-02-07T05:18:54.321Z,56.57
2019-02-07T05:19:36.096Z,55.59
2019-02-07T05:20:10.167Z,54.81
2019-02-07T05:20:48.887Z,54.72
2019-02-07T05:21:28.025Z,54.96
2019-02-07T05:21:59.174Z,56.19
2019-02-07T05:22:35.221Z,56.89
2019-02-07T05:23:21.171Z,57.32
2019-02-07T05:23:52.410Z,57.12
2019-02-07T05:24:26.888Z,55.83
2019-02-07T05:25:05.993Z,55.12
2019-02-07T05:25:37.568Z,54.79
2019-02-07T05:26:16.515Z,54.97
2019-02-07T05:26:56.996Z,55.57
2019-02-07T05:27:28.287Z,56.78
2019-02-07T05:28:01.493Z,57.05
2019-02-07T05:28:34.670Z,56.82
2019-02-07T05:29:25.930Z,55.83
2019-02-07T05:29:59.098Z,54.89
2019-02-07T05:30:39.320Z,54.84
2019-02-07T05:31:12.425Z,54.91
2019-02-07T05:31:55.542Z,55.87
2019-02-07T05:32:45.327Z,56.97
2019-02-07T05:33:24.133Z,57.70
2019-02-07T05:33:57.241Z,56.88
2019-02-07T05:34:46.995Z,55.54
2019-02-07T05:35:25.905Z,54.68
2019-02-07T05:36:12.503Z,54.66
2019-02-07T05:36:54.654Z,55.09
2019-02-07T05:37:39.872Z,56.61
2019-02-07T05:38:19.823Z,57.65
2019-02-07T05:38:53.009Z,57.28
2019-02-07T05:39:42.852Z,56.08
2019-02-07T05:40:15.978Z,54.94
2019-02-07T05:41:05.482Z,54.93
2019-02-07T05:41:45.486Z,54.62
2019-02-07T05:42:18.652Z,55.87
2019-02-07T05:43:09.900Z,56.76
2019-02-07T05:43:59.362Z,57.69
2019-02-07T05:44:41.159Z,57.02
2019-02-07T05:45:18.136Z,55.54
2019-02-07T05:45:49.405Z,54.88
2019-02-07T05:46:22.792Z,54.91
2019-02-07T05:46:54.055Z,54.93
2019-02-07T05:47:31.397Z,55.85
2019-02-07T05:48:11.459Z,56.68
2019-02-07T05:48:50.575Z,57.25
2019-02-07T05:49:29.503Z,56.61
2019-02-07T05:50:02.657Z,55.35
2019-02-07T05:50:53.489Z,54.87
2019-02-07T05:51:38.732Z,54.49
2019-02-07T05:52:11.787Z,55.34
2019-02-07T05:52:59.963Z,56.56
2019-02-07T05:53:34.019Z,57.46
2019-02-07T05:54:07.179Z,57.16
2019-02-07T05:54:42.842Z,56.19
2019-02-07T05:55:15.984Z,55.24
2019-02-07T05:56:05.236Z,54.73
2019-02-07T05:56:48.634Z,54.35
2019-02-07T05:57:30.596Z,54.80
2019-02-07T05:58:06.438Z,56.18
2019-02-07T05:58:59.067Z,56.87
2019-02-07T05:59:29.226Z,57.29
2019-02-07T06:00:00.510Z,55.84
2019-02-07T06:00:33.751Z,54.96
2019-02-07T06:01:05.201Z,54.60
2019-02-07T06:01:47.009Z,54.49
2019-02-07T06:02:36.591Z,54.46
2019-02-07T06:03:27.287Z,55.65
2019-02-07T06:04:03.263Z,57.27
2019-02-07T06:04:42.370Z,57.23
2019-02-07T06:05:15.439Z,56.49
2019-02-07T06:05:51.474Z,55.25
2019-02-07T06:06:30.559Z,54.63
2019-02-07T06:07:06.475Z,54.28
2019-02-07T06:07:49.413Z,54.48
2019-02-07T06:08:34.499Z,55.17
2019-02-07T06:09:26.050Z,56.66
2019-02-07T06:10:15.711Z,57.38
2019-02-07T06:10:51.380Z,55.92
2019-02-07T06:11:25.568Z,54.89
2019-02-07T06:12:04.521Z,54.48
2019-02-07T06:12:40.300Z,54.36
2019-02-07T06:13:16.188Z,54.79
2019-02-07T06:14:04.233Z,55.95
2019-02-07T06:14:43.439Z,57.16
2019-02-07T06:15:25.591Z,57.30
2019-02-07T06:16:15.124Z,56.33
2019-02-07T06:16:48.251Z,55.03
2019-02-07T06:17:28.881Z,54.82
2019-02-07T06:18:18.507Z,54.60
2019-02-07T06:19:08.131Z,55.71
2019-02-07T06:19:57.825Z,57.14
2019-02-07T06:20:33.975Z,57.25
2019-02-07T06:21:09.970Z,55.78
2019-02-07T06:21:48.728Z,54.85
2019-02-07T06:22:33.535Z,54.52
2019-02-07T06:23:23.467Z,54.35
2019-02-07T06:23:56.545Z,55.20
2019-02-07T06:24:29.670Z,56.59
2019-02-07T06:25:08.415Z,57.12
2019-02-07T06:25:41.589Z,57.26
2019-02-07T06:26:31.015Z,56.09
2019-02-07T06:27:08.135Z,54.92
2019-02-07T06:27:51.690Z,54.53
2019-02-07T06:28:35.288Z,54.49
2019-02-07T06:29:10.966Z,55.57
2019-02-07T06:29:44.091Z,56.60
2019-02-07T06:30:26.341Z,56.81
2019-02-07T06:31:00.469Z,56.66
2019-02-07T06:31:33.591Z,55.43
2019-02-07T06:32:09.556Z,54.74
2019-02-07T06:33:00.301Z,54.41
2019-02-07T06:33:51.443Z,54.23
2019-02-07T06:34:29.056Z,56.08
2019-02-07T06:34:56.751Z,56.84
2019-02-07T06:35:46.312Z,56.94
2019-02-07T06:36:19.393Z,56.41
2019-02-07T06:36:59.659Z,54.93
2019-02-07T06:37:35.560Z,54.36
2019-02-07T06:38:11.356Z,54.18
2019-02-07T06:38:45.513Z,54.42
2019-02-07T06:39:22.562Z,55.42
2019-02-07T06:40:07.741Z,56.34
2019-02-07T06:40:40.858Z,57.01
2019-02-07T06:41:13.994Z,55.70
2019-02-07T06:41:50.883Z,54.81
2019-02-07T06:42:24.166Z,54.24
2019-02-07T06:43:15.336Z,54.14
2019-02-07T06:43:51.107Z,54.06
2019-02-07T06:44:33.083Z,55.55
2019-02-07T06:45:23.033Z,56.72
2019-02-07T06:46:07.072Z,57.26
2019-02-07T06:46:56.716Z,55.58
2019-02-07T06:47:39.979Z,54.46
2019-02-07T06:48:11.230Z,54.11
2019-02-07T06:49:00.679Z,54.55
2019-02-07T06:49:39.727Z,55.83
2019-02-07T06:50:18.848Z,56.67
2019-02-07T06:50:54.885Z,56.64
2019-02-07T06:51:46.017Z,55.50
2019-02-07T06:52:19.181Z,54.30
2019-02-07T06:53:07.581Z,54.23
2019-02-07T06:53:41.660Z,53.93
2019-02-07T06:54:26.494Z,55.03
2019-02-07T06:54:57.748Z,56.44
2019-02-07T06:55:30.822Z,56.64
2019-02-07T06:56:20.608Z,56.15
2019-02-07T06:56:51.818Z,54.88
2019-02-07T06:57:25.730Z,54.33
2019-02-07T06:58:01.736Z,54.12
2019-02-07T06:58:49.784Z,54.08
2019-02-07T06:59:28.755Z,55.02
2019-02-07T07:00:14.075Z,56.24
2019-02-07T07:00:45.247Z,56.65
2019-02-07T07:01:34.740Z,55.13
2019-02-07T07:02:12.119Z,54.07
2019-02-07T07:03:01.814Z,53.84
2019-02-07T07:03:41.845Z,53.67
2019-02-07T07:04:28.146Z,55.22
2019-02-07T07:05:17.845Z,56.44
2019-02-07T07:05:55.031Z,56.08
2019-02-07T07:06:36.932Z,54.50
2019-02-07T07:07:10.865Z,53.75
2019-02-07T07:07:52.910Z,53.62
2019-02-07T07:08:28.755Z,53.48
2019-02-07T07:09:18.472Z,54.21
2019-02-07T07:10:00.582Z,55.90
2019-02-07T07:10:48.408Z,56.24
2019-02-07T07:11:21.548Z,54.81
2019-02-07T07:12:04.716Z,53.98
2019-02-07T07:12:44.877Z,53.47
2019-02-07T07:13:32.860Z,53.44
2019-02-07T07:14:08.696Z,53.94
2019-02-07T07:14:48.245Z,55.49
2019-02-07T07:15:27.091Z,56.39
2019-02-07T07:16:16.805Z,55.63
2019-02-07T07:16:49.866Z,54.02
2019-02-07T07:17:28.634Z,53.60
2019-02-07T07:18:13.451Z,53.45
2019-02-07T07:19:03.121Z,53.36
2019-02-07T07:19:46.418Z,55.00
2019-02-07T07:20:25.550Z,56.09
2019-02-07T07:20:59.523Z,55.83
2019-02-07T07:21:44.977Z,54.48
2019-02-07T07:22:20.989Z,53.51
2019-02-07T07:23:06.991Z,53.26
2019-02-07T07:23:56.530Z,53.20
2019-02-07T07:24:39.904Z,54.23
2019-02-07T07:25:30.914Z,55.85
2019-02-07T07:26:20.735Z,56.65
2019-02-07T07:27:02.578Z,55.03
2019-02-07T07:27:51.976Z,53.81
2019-02-07T07:28:29.390Z,53.21
2019-02-07T07:29:09.346Z,53.35
2019-02-07T07:29:42.535Z,54.28
2019-02-07T07:30:15.716Z,55.25
2019-02-07T07:30:54.885Z,55.72
2019-02-07T07:31:30.916Z,55.15
2019-02-07T07:32:10.339Z,53.99
2019-02-07T07:32:59.688Z,53.44
2019-02-07T07:33:47.837Z,52.94
2019-02-07T07:34:29.642Z,53.38
2019-02-07T07:35:11.715Z,55.00
2019-02-07T07:35:59.806Z,55.96
2019-02-07T07:36:38.650Z,55.53
2019-02-07T07:37:11.729Z,53.97
2019-02-07T07:37:44.924Z,53.38
2019-02-07T07:38:23.658Z,53.26
2019-02-07T07:38:56.824Z,53.20
2019-02-07T07:39:33.894Z,53.74
2019-02-07T07:40:10.138Z,55.00
2019-02-07T07:40:49.218Z,55.82
2019-02-07T07:41:25.212Z,55.63
2019-02-07T07:41:59.148Z,54.41
2019-02-07T07:42:48.547Z,53.70
2019-02-07T07:43:37.883Z,53.00
2019-02-07T07:44:19.885Z,52.79